sensor_id;sensor_type;location;lat;lon;timestamp;pressure;altitude;pressure_sealevel;temperature;humidity
84382;BME280;74572;51.834;5.820;2024-03-02T00:02:24;99907.66;;;7.77;64.60
84382;BME280;74572;51.834;5.820;2024-03-02T00:04:50;99887.81;;;7.68;64.52
84382;BME280;74572;51.834;5.820;2024-03-02T00:07:16;99900.09;;;7.60;65.06
84382;BME280;74572;51.834;5.820;2024-03-02T00:09:42;99894.72;;;7.54;65.21
84382;BME280;74572;51.834;5.820;2024-03-02T00:12:08;99893.41;;;7.45;65.24
84382;BME280;74572;51.834;5.820;2024-03-02T00:14:33;99893.31;;;7.43;65.36
84382;BME280;74572;51.834;5.820;2024-03-02T00:16:59;99897.44;;;7.41;65.71
84382;BME280;74572;51.834;5.820;2024-03-02T00:19:24;99896.72;;;7.44;65.84
84382;BME280;74572;51.834;5.820;2024-03-02T00:21:50;99900.19;;;7.46;65.50
84382;BME280;74572;51.834;5.820;2024-03-02T00:24:31;99899.47;;;7.48;65.34
84382;BME280;74572;51.834;5.820;2024-03-02T00:26:57;99901.06;;;7.46;65.43
84382;BME280;74572;51.834;5.820;2024-03-02T00:29:22;99913.94;;;7.51;65.65
84382;BME280;74572;51.834;5.820;2024-03-02T00:31:48;99908.31;;;7.56;65.58
84382;BME280;74572;51.834;5.820;2024-03-02T00:34:14;99911.25;;;7.64;65.49
84382;BME280;74572;51.834;5.820;2024-03-02T00:36:41;99914.13;;;7.72;65.08
84382;BME280;74572;51.834;5.820;2024-03-02T00:39:07;99912.06;;;7.81;64.78
84382;BME280;74572;51.834;5.820;2024-03-02T00:41:33;99913.19;;;7.86;64.92
84382;BME280;74572;51.834;5.820;2024-03-02T00:44:02;99915.28;;;7.94;64.86
84382;BME280;74572;51.834;5.820;2024-03-02T00:46:36;99909.50;;;7.97;64.62
84382;BME280;74572;51.834;5.820;2024-03-02T00:49:02;99927.47;;;8.02;64.67
84382;BME280;74572;51.834;5.820;2024-03-02T00:51:30;99925.09;;;8.05;64.34
84382;BME280;74572;51.834;5.820;2024-03-02T00:53:59;99925.28;;;8.09;64.58
84382;BME280;74572;51.834;5.820;2024-03-02T00:56:25;99942.22;;;8.10;64.23
84382;BME280;74572;51.834;5.820;2024-03-02T00:58:52;99939.69;;;8.10;64.47
84382;BME280;74572;51.834;5.820;2024-03-02T01:01:18;99966.75;;;8.11;64.43
84382;BME280;74572;51.834;5.820;2024-03-02T01:03:45;99976.88;;;8.11;64.41
84382;BME280;74572;51.834;5.820;2024-03-02T01:06:10;99995.41;;;8.10;64.28
84382;BME280;74572;51.834;5.820;2024-03-02T01:08:36;100015.56;;;8.07;64.66
84382;BME280;74572;51.834;5.820;2024-03-02T01:11:03;100017.13;;;8.05;65.22
84382;BME280;74572;51.834;5.820;2024-03-02T01:13:28;100011.28;;;8.06;65.80
84382;BME280;74572;51.834;5.820;2024-03-02T01:15:55;100014.69;;;8.07;66.10
84382;BME280;74572;51.834;5.820;2024-03-02T01:18:20;100013.81;;;8.06;66.06
84382;BME280;74572;51.834;5.820;2024-03-02T01:20:47;100020.47;;;8.04;66.71
84382;BME280;74572;51.834;5.820;2024-03-02T01:23:13;100011.13;;;8.03;66.41
84382;BME280;74572;51.834;5.820;2024-03-02T01:25:39;100023.63;;;8.00;67.23
84382;BME280;74572;51.834;5.820;2024-03-02T01:28:05;100019.25;;;7.97;66.88
84382;BME280;74572;51.834;5.820;2024-03-02T01:30:30;100026.78;;;7.96;67.87
84382;BME280;74572;51.834;5.820;2024-03-02T01:32:56;100035.16;;;7.95;68.22
84382;BME280;74572;51.834;5.820;2024-03-02T01:35:21;100026.41;;;7.88;68.48
84382;BME280;74572;51.834;5.820;2024-03-02T01:37:47;100021.28;;;7.87;68.45
84382;BME280;74572;51.834;5.820;2024-03-02T01:40:12;100016.03;;;7.84;69.14
84382;BME280;74572;51.834;5.820;2024-03-02T01:42:38;100008.13;;;7.78;69.08
84382;BME280;74572;51.834;5.820;2024-03-02T01:45:08;100013.97;;;7.77;69.44
84382;BME280;74572;51.834;5.820;2024-03-02T01:47:34;100017.31;;;7.76;69.48
84382;BME280;74572;51.834;5.820;2024-03-02T01:50:00;100009.63;;;7.74;69.61
84382;BME280;74572;51.834;5.820;2024-03-02T01:52:27;100013.72;;;7.72;69.35
84382;BME280;74572;51.834;5.820;2024-03-02T01:54:52;100012.78;;;7.70;70.03
84382;BME280;74572;51.834;5.820;2024-03-02T01:57:18;100015.38;;;7.72;69.47
84382;BME280;74572;51.834;5.820;2024-03-02T01:59:44;100006.00;;;7.69;69.59
84382;BME280;74572;51.834;5.820;2024-03-02T02:02:09;100010.19;;;7.69;69.92
84382;BME280;74572;51.834;5.820;2024-03-02T02:04:35;100010.13;;;7.67;70.11
84382;BME280;74572;51.834;5.820;2024-03-02T02:07:00;100009.16;;;7.65;70.03
84382;BME280;74572;51.834;5.820;2024-03-02T02:09:26;100007.59;;;7.67;69.72
84382;BME280;74572;51.834;5.820;2024-03-02T02:11:52;99998.25;;;7.66;69.54
84382;BME280;74572;51.834;5.820;2024-03-02T02:14:17;99995.81;;;7.68;69.69
84382;BME280;74572;51.834;5.820;2024-03-02T02:16:43;100000.88;;;7.68;69.64
84382;BME280;74572;51.834;5.820;2024-03-02T02:19:08;99993.19;;;7.66;69.45
84382;BME280;74572;51.834;5.820;2024-03-02T02:21:34;99987.25;;;7.66;69.29
84382;BME280;74572;51.834;5.820;2024-03-02T02:24:00;99991.53;;;7.67;69.71
84382;BME280;74572;51.834;5.820;2024-03-02T02:26:28;99993.09;;;7.65;69.30
84382;BME280;74572;51.834;5.820;2024-03-02T02:28:53;99994.84;;;7.66;69.82
84382;BME280;74572;51.834;5.820;2024-03-02T02:31:19;99993.09;;;7.65;69.40
84382;BME280;74572;51.834;5.820;2024-03-02T02:33:44;99995.56;;;7.63;69.27
84382;BME280;74572;51.834;5.820;2024-03-02T02:36:10;100006.63;;;7.65;69.67
84382;BME280;74572;51.834;5.820;2024-03-02T02:38:39;100008.47;;;7.68;69.56
84382;BME280;74572;51.834;5.820;2024-03-02T02:41:05;100009.31;;;7.68;69.33
84382;BME280;74572;51.834;5.820;2024-03-02T02:43:30;99990.75;;;7.68;69.27
84382;BME280;74572;51.834;5.820;2024-03-02T02:45:56;99998.34;;;7.68;69.17
84382;BME280;74572;51.834;5.820;2024-03-02T02:48:21;100004.19;;;7.67;68.79
84382;BME280;74572;51.834;5.820;2024-03-02T02:50:47;99994.06;;;7.67;68.97
84382;BME280;74572;51.834;5.820;2024-03-02T02:53:13;99993.91;;;7.63;69.13
84382;BME280;74572;51.834;5.820;2024-03-02T02:55:39;99997.13;;;7.61;69.14
84382;BME280;74572;51.834;5.820;2024-03-02T02:58:12;99988.59;;;7.59;69.37
84382;BME280;74572;51.834;5.820;2024-03-02T03:00:37;100006.06;;;7.54;69.67
84382;BME280;74572;51.834;5.820;2024-03-02T03:03:03;99989.00;;;7.50;70.33
84382;BME280;74572;51.834;5.820;2024-03-02T03:05:29;100000.53;;;7.45;70.14
84382;BME280;74572;51.834;5.820;2024-03-02T03:07:54;99994.44;;;7.42;70.18
84382;BME280;74572;51.834;5.820;2024-03-02T03:10:20;99995.06;;;7.38;71.06
84382;BME280;74572;51.834;5.820;2024-03-02T03:12:48;99998.28;;;7.35;71.00
84382;BME280;74572;51.834;5.820;2024-03-02T03:15:14;99999.88;;;7.33;70.73
84382;BME280;74572;51.834;5.820;2024-03-02T03:17:41;99998.13;;;7.32;71.21
84382;BME280;74572;51.834;5.820;2024-03-02T03:20:07;100003.06;;;7.29;71.33
84382;BME280;74572;51.834;5.820;2024-03-02T03:22:37;100005.50;;;7.27;71.83
84382;BME280;74572;51.834;5.820;2024-03-02T03:25:03;100013.00;;;7.26;71.39
84382;BME280;74572;51.834;5.820;2024-03-02T03:27:29;100022.97;;;7.23;71.72
84382;BME280;74572;51.834;5.820;2024-03-02T03:29:54;100025.22;;;7.18;72.13
84382;BME280;74572;51.834;5.820;2024-03-02T03:32:20;100006.66;;;7.18;72.24
84382;BME280;74572;51.834;5.820;2024-03-02T03:34:45;100034.31;;;7.15;72.10
84382;BME280;74572;51.834;5.820;2024-03-02T03:37:11;100029.91;;;7.11;72.70
84382;BME280;74572;51.834;5.820;2024-03-02T03:39:36;100022.31;;;7.11;72.80
84382;BME280;74572;51.834;5.820;2024-03-02T03:42:02;100028.06;;;7.08;73.23
84382;BME280;74572;51.834;5.820;2024-03-02T03:44:28;100036.44;;;7.07;73.22
84382;BME280;74572;51.834;5.820;2024-03-02T03:46:53;100033.66;;;7.03;73.51
84382;BME280;74572;51.834;5.820;2024-03-02T03:49:18;100035.22;;;7.01;73.65
84382;BME280;74572;51.834;5.820;2024-03-02T03:51:44;100031.72;;;6.99;73.53
84382;BME280;74572;51.834;5.820;2024-03-02T03:54:09;100020.56;;;6.95;73.61
84382;BME280;74572;51.834;5.820;2024-03-02T03:56:36;100023.19;;;6.97;73.43
84382;BME280;74572;51.834;5.820;2024-03-02T03:59:02;100031.66;;;6.97;73.87
84382;BME280;74572;51.834;5.820;2024-03-02T04:01:27;100044.47;;;7.00;73.51
84382;BME280;74572;51.834;5.820;2024-03-02T04:03:53;100049.34;;;6.97;73.52
84382;BME280;74572;51.834;5.820;2024-03-02T04:06:18;100070.63;;;7.01;74.02
84382;BME280;74572;51.834;5.820;2024-03-02T04:08:44;100057.88;;;6.99;73.39
84382;BME280;74572;51.834;5.820;2024-03-02T04:11:09;100040.97;;;6.98;73.94
84382;BME280;74572;51.834;5.820;2024-03-02T04:13:35;100030.69;;;6.95;73.61
84382;BME280;74572;51.834;5.820;2024-03-02T04:16:01;100024.75;;;6.94;73.17
84382;BME280;74572;51.834;5.820;2024-03-02T04:18:26;100028.94;;;6.94;73.45
84382;BME280;74572;51.834;5.820;2024-03-02T04:20:51;100026.19;;;6.89;73.79
84382;BME280;74572;51.834;5.820;2024-03-02T04:23:17;100031.06;;;6.86;73.46
84382;BME280;74572;51.834;5.820;2024-03-02T04:25:42;100039.72;;;6.90;73.31
84382;BME280;74572;51.834;5.820;2024-03-02T04:28:08;100031.16;;;6.88;73.98
84382;BME280;74572;51.834;5.820;2024-03-02T04:30:33;100044.50;;;6.85;73.65
84382;BME280;74572;51.834;5.820;2024-03-02T04:32:58;100040.84;;;6.80;74.00
84382;BME280;74572;51.834;5.820;2024-03-02T04:35:24;100050.78;;;6.77;74.17
84382;BME280;74572;51.834;5.820;2024-03-02T04:37:50;100046.41;;;6.75;74.02
84382;BME280;74572;51.834;5.820;2024-03-02T04:40:15;100039.38;;;6.69;73.85
84382;BME280;74572;51.834;5.820;2024-03-02T04:42:41;100055.31;;;6.68;74.28
84382;BME280;74572;51.834;5.820;2024-03-02T04:45:07;100046.78;;;6.66;74.35
84382;BME280;74572;51.834;5.820;2024-03-02T04:47:32;100049.91;;;6.62;74.37
84382;BME280;74572;51.834;5.820;2024-03-02T04:49:58;100051.16;;;6.54;74.25
84382;BME280;74572;51.834;5.820;2024-03-02T04:52:23;100048.09;;;6.45;74.78
84382;BME280;74572;51.834;5.820;2024-03-02T04:54:49;100052.19;;;6.43;74.75
84382;BME280;74572;51.834;5.820;2024-03-02T04:57:43;100053.84;;;6.42;74.75
84382;BME280;74572;51.834;5.820;2024-03-02T05:00:10;100052.59;;;6.36;74.99
84382;BME280;74572;51.834;5.820;2024-03-02T05:02:35;100067.72;;;6.34;75.09
84382;BME280;74572;51.834;5.820;2024-03-02T05:05:01;100067.72;;;6.34;74.63
84382;BME280;74572;51.834;5.820;2024-03-02T05:07:27;100067.94;;;6.39;74.93
84382;BME280;74572;51.834;5.820;2024-03-02T05:09:53;100066.88;;;6.35;74.92
84382;BME280;74572;51.834;5.820;2024-03-02T05:12:18;100080.25;;;6.33;74.91
84382;BME280;74572;51.834;5.820;2024-03-02T05:15:02;100080.25;;;6.33;74.86
84382;BME280;74572;51.834;5.820;2024-03-02T05:17:28;100074.56;;;6.37;74.81
84382;BME280;74572;51.834;5.820;2024-03-02T05:19:53;100072.03;;;6.37;74.17
84382;BME280;74572;51.834;5.820;2024-03-02T05:22:19;100074.75;;;6.40;74.06
84382;BME280;74572;51.834;5.820;2024-03-02T05:24:44;100082.22;;;6.38;74.45
84382;BME280;74572;51.834;5.820;2024-03-02T05:27:09;100077.19;;;6.38;74.15
84382;BME280;74572;51.834;5.820;2024-03-02T05:29:35;100084.75;;;6.38;74.15
84382;BME280;74572;51.834;5.820;2024-03-02T05:32:00;100089.72;;;6.37;73.94
84382;BME280;74572;51.834;5.820;2024-03-02T05:34:26;100088.84;;;6.36;74.30
84382;BME280;74572;51.834;5.820;2024-03-02T05:36:51;100085.28;;;6.33;73.84
84382;BME280;74572;51.834;5.820;2024-03-02T05:39:16;100094.16;;;6.26;74.20
84382;BME280;74572;51.834;5.820;2024-03-02T05:41:42;100096.41;;;6.21;74.24
84382;BME280;74572;51.834;5.820;2024-03-02T05:44:07;100098.75;;;6.18;74.54
84382;BME280;74572;51.834;5.820;2024-03-02T05:46:33;100091.06;;;6.17;74.40
84382;BME280;74572;51.834;5.820;2024-03-02T05:49:01;100089.41;;;6.17;74.68
84382;BME280;74572;51.834;5.820;2024-03-02T05:51:27;100093.59;;;6.17;74.61
84382;BME280;74572;51.834;5.820;2024-03-02T05:53:52;100096.22;;;6.18;74.62
84382;BME280;74572;51.834;5.820;2024-03-02T05:56:18;100098.84;;;6.20;74.37
84382;BME280;74572;51.834;5.820;2024-03-02T05:58:43;100099.53;;;6.17;74.15
84382;BME280;74572;51.834;5.820;2024-03-02T06:01:23;100102.81;;;6.16;74.02
84382;BME280;74572;51.834;5.820;2024-03-02T06:03:54;100102.31;;;6.07;74.41
84382;BME280;74572;51.834;5.820;2024-03-02T06:06:20;100107.75;;;6.00;74.63
84382;BME280;74572;51.834;5.820;2024-03-02T06:08:46;100101.50;;;5.94;74.68
84382;BME280;74572;51.834;5.820;2024-03-02T06:11:11;100104.47;;;5.88;74.38
84382;BME280;74572;51.834;5.820;2024-03-02T06:13:37;100102.16;;;5.78;74.93
84382;BME280;74572;51.834;5.820;2024-03-02T06:16:02;100108.59;;;5.73;74.68
84382;BME280;74572;51.834;5.820;2024-03-02T06:18:28;100110.53;;;5.64;74.78
84382;BME280;74572;51.834;5.820;2024-03-02T06:20:53;100114.53;;;5.60;75.01
84382;BME280;74572;51.834;5.820;2024-03-02T06:23:19;100113.31;;;5.53;74.91
84382;BME280;74572;51.834;5.820;2024-03-02T06:25:45;100111.75;;;5.55;75.45
84382;BME280;74572;51.834;5.820;2024-03-02T06:28:13;100114.53;;;5.60;75.45
84382;BME280;74572;51.834;5.820;2024-03-02T06:30:41;100119.88;;;5.65;75.18
84382;BME280;74572;51.834;5.820;2024-03-02T06:33:07;100122.19;;;5.75;75.43
84382;BME280;74572;51.834;5.820;2024-03-02T06:35:32;100123.59;;;5.84;75.04
84382;BME280;74572;51.834;5.820;2024-03-02T06:37:58;100129.72;;;5.88;74.91
84382;BME280;74572;51.834;5.820;2024-03-02T06:40:23;100133.25;;;5.90;74.89
84382;BME280;74572;51.834;5.820;2024-03-02T06:42:49;100132.03;;;5.98;74.74
84382;BME280;74572;51.834;5.820;2024-03-02T06:45:14;100135.91;;;6.06;74.17
84382;BME280;74572;51.834;5.820;2024-03-02T06:47:40;100135.13;;;6.07;74.44
84382;BME280;74572;51.834;5.820;2024-03-02T06:50:05;100146.28;;;6.11;74.16
84382;BME280;74572;51.834;5.820;2024-03-02T06:52:32;100148.28;;;6.16;74.21
84382;BME280;74572;51.834;5.820;2024-03-02T06:54:57;100148.66;;;6.22;74.22
84382;BME280;74572;51.834;5.820;2024-03-02T06:57:23;100158.34;;;6.30;73.72
84382;BME280;74572;51.834;5.820;2024-03-02T06:59:50;100159.31;;;6.32;73.68
84382;BME280;74572;51.834;5.820;2024-03-02T07:02:16;100151.47;;;6.27;74.12
84382;BME280;74572;51.834;5.820;2024-03-02T07:04:42;100151.97;;;6.21;74.08
84382;BME280;74572;51.834;5.820;2024-03-02T07:07:07;100141.75;;;6.20;74.36
84382;BME280;74572;51.834;5.820;2024-03-02T07:09:33;100152.00;;;6.36;74.00
84382;BME280;74572;51.834;5.820;2024-03-02T07:11:58;100147.91;;;6.38;74.00
84382;BME280;74572;51.834;5.820;2024-03-02T07:14:24;100158.88;;;6.39;74.06
84382;BME280;74572;51.834;5.820;2024-03-02T07:17:12;100160.81;;;6.43;74.02
84382;BME280;74572;51.834;5.820;2024-03-02T07:19:38;100165.47;;;6.50;73.52
84382;BME280;74572;51.834;5.820;2024-03-02T07:22:07;100171.91;;;6.59;73.46
84382;BME280;74572;51.834;5.820;2024-03-02T07:24:42;100174.28;;;6.71;72.84
84382;BME280;74572;51.834;5.820;2024-03-02T07:27:12;100163.41;;;6.87;73.03
84382;BME280;74572;51.834;5.820;2024-03-02T07:29:38;100166.63;;;6.99;72.42
84382;BME280;74572;51.834;5.820;2024-03-02T07:32:04;100182.50;;;7.26;71.71
84382;BME280;74572;51.834;5.820;2024-03-02T07:34:30;100172.78;;;7.79;71.13
84382;BME280;74572;51.834;5.820;2024-03-02T07:36:56;100170.69;;;8.03;70.37
84382;BME280;74572;51.834;5.820;2024-03-02T07:39:22;100174.16;;;8.05;70.33
84382;BME280;74572;51.834;5.820;2024-03-02T07:41:47;100175.03;;;8.06;70.31
84382;BME280;74572;51.834;5.820;2024-03-02T07:44:13;100167.56;;;8.40;69.36
84382;BME280;74572;51.834;5.820;2024-03-02T07:46:44;100166.41;;;8.83;68.66
84382;BME280;74572;51.834;5.820;2024-03-02T07:49:12;100171.06;;;9.10;67.36
84382;BME280;74572;51.834;5.820;2024-03-02T07:51:39;100166.94;;;9.12;68.24
84382;BME280;74572;51.834;5.820;2024-03-02T07:54:04;100162.09;;;9.52;67.32
84382;BME280;74572;51.834;5.820;2024-03-02T07:56:30;100159.44;;;9.86;66.14
84382;BME280;74572;51.834;5.820;2024-03-02T07:58:56;100168.63;;;10.38;65.30
84382;BME280;74572;51.834;5.820;2024-03-02T08:01:27;100157.28;;;10.91;63.36
84382;BME280;74572;51.834;5.820;2024-03-02T08:03:59;100163.56;;;11.63;60.92
84382;BME280;74572;51.834;5.820;2024-03-02T08:06:26;100162.06;;;12.13;59.50
84382;BME280;74572;51.834;5.820;2024-03-02T08:08:55;100163.53;;;13.03;59.54
84382;BME280;74572;51.834;5.820;2024-03-02T08:11:22;100171.75;;;14.02;58.20
84382;BME280;74572;51.834;5.820;2024-03-02T08:13:48;100158.69;;;15.19;57.80
84382;BME280;74572;51.834;5.820;2024-03-02T08:16:17;100148.75;;;16.08;53.65
84382;BME280;74572;51.834;5.820;2024-03-02T08:18:47;100162.09;;;15.92;53.95
84382;BME280;74572;51.834;5.820;2024-03-02T08:21:12;100160.88;;;15.40;53.17
84382;BME280;74572;51.834;5.820;2024-03-02T08:23:38;100167.41;;;15.62;53.62
84382;BME280;74572;51.834;5.820;2024-03-02T08:26:06;100156.50;;;16.11;51.62
84382;BME280;74572;51.834;5.820;2024-03-02T08:28:32;100152.94;;;16.95;50.28
84382;BME280;74572;51.834;5.820;2024-03-02T08:30:58;100169.00;;;17.33;46.08
84382;BME280;74572;51.834;5.820;2024-03-02T08:33:24;100170.97;;;17.49;47.11
84382;BME280;74572;51.834;5.820;2024-03-02T08:35:53;100169.75;;;16.76;47.46
84382;BME280;74572;51.834;5.820;2024-03-02T08:38:18;100163.69;;;16.29;48.21
84382;BME280;74572;51.834;5.820;2024-03-02T08:40:44;100167.06;;;16.26;47.70
84382;BME280;74572;51.834;5.820;2024-03-02T08:43:09;100181.88;;;16.83;48.20
84382;BME280;74572;51.834;5.820;2024-03-02T08:45:35;100167.56;;;16.97;47.31
84382;BME280;74572;51.834;5.820;2024-03-02T08:48:01;100176.19;;;16.55;46.58
84382;BME280;74572;51.834;5.820;2024-03-02T08:50:26;100171.13;;;16.58;47.13
84382;BME280;74572;51.834;5.820;2024-03-02T08:52:52;100165.88;;;16.52;46.36
84382;BME280;74572;51.834;5.820;2024-03-02T08:55:17;100167.53;;;16.49;44.72
84382;BME280;74572;51.834;5.820;2024-03-02T08:57:43;100161.84;;;16.21;44.81
84382;BME280;74572;51.834;5.820;2024-03-02T09:00:09;100174.97;;;15.95;45.46
84382;BME280;74572;51.834;5.820;2024-03-02T09:02:34;100184.06;;;16.21;44.71
84382;BME280;74572;51.834;5.820;2024-03-02T09:05:01;100185.34;;;16.85;43.38
84382;BME280;74572;51.834;5.820;2024-03-02T09:07:27;100166.03;;;16.62;44.00
84382;BME280;74572;51.834;5.820;2024-03-02T09:09:52;100176.34;;;16.19;44.45
84382;BME280;74572;51.834;5.820;2024-03-02T09:12:18;100172.81;;;16.13;44.66
84382;BME280;74572;51.834;5.820;2024-03-02T09:14:44;100185.31;;;15.59;44.84
84382;BME280;74572;51.834;5.820;2024-03-02T09:17:10;100178.06;;;15.44;44.95
84382;BME280;74572;51.834;5.820;2024-03-02T09:19:36;100186.75;;;15.14;44.82
84382;BME280;74572;51.834;5.820;2024-03-02T09:22:02;100187.22;;;14.67;46.00
84382;BME280;74572;51.834;5.820;2024-03-02T09:24:28;100194.22;;;14.41;46.27
84382;BME280;74572;51.834;5.820;2024-03-02T09:26:54;100199.72;;;14.26;46.50
84382;BME280;74572;51.834;5.820;2024-03-02T09:29:19;100204.00;;;14.27;46.83
84382;BME280;74572;51.834;5.820;2024-03-02T09:31:46;100204.94;;;14.59;46.30
84382;BME280;74572;51.834;5.820;2024-03-02T09:34:12;100189.03;;;14.71;45.88
84382;BME280;74572;51.834;5.820;2024-03-02T09:36:39;100188.06;;;14.99;46.37
84382;BME280;74572;51.834;5.820;2024-03-02T09:39:05;100181.91;;;15.61;45.65
84382;BME280;74572;51.834;5.820;2024-03-02T09:41:30;100176.38;;;16.63;44.41
84382;BME280;74572;51.834;5.820;2024-03-02T09:43:56;100172.91;;;17.64;42.99
84382;BME280;74572;51.834;5.820;2024-03-02T09:46:23;100175.59;;;17.71;42.21
84382;BME280;74572;51.834;5.820;2024-03-02T09:48:48;100167.44;;;16.44;42.74
84382;BME280;74572;51.834;5.820;2024-03-02T09:51:14;100170.16;;;16.10;44.28
84382;BME280;74572;51.834;5.820;2024-03-02T09:53:40;100168.97;;;17.30;42.38
84382;BME280;74572;51.834;5.820;2024-03-02T09:56:05;100170.22;;;18.18;41.91
84382;BME280;74572;51.834;5.820;2024-03-02T09:58:31;100178.84;;;18.20;40.98
84382;BME280;74572;51.834;5.820;2024-03-02T10:00:56;100169.91;;;19.57;39.46
84382;BME280;74572;51.834;5.820;2024-03-02T10:03:26;100168.69;;;20.68;37.59
84382;BME280;74572;51.834;5.820;2024-03-02T10:05:52;100180.78;;;21.70;37.47
84382;BME280;74572;51.834;5.820;2024-03-02T10:08:18;100172.94;;;22.00;36.44
84382;BME280;74572;51.834;5.820;2024-03-02T10:10:43;100177.19;;;22.24;35.75
84382;BME280;74572;51.834;5.820;2024-03-02T10:13:13;100171.34;;;21.35;34.12
84382;BME280;74572;51.834;5.820;2024-03-02T10:15:40;100167.00;;;21.07;35.33
84382;BME280;74572;51.834;5.820;2024-03-02T10:18:26;100172.81;;;20.24;35.54
84382;BME280;74572;51.834;5.820;2024-03-02T10:20:53;100173.03;;;21.03;35.61
84382;BME280;74572;51.834;5.820;2024-03-02T10:23:18;100161.84;;;21.48;34.31
84382;BME280;74572;51.834;5.820;2024-03-02T10:25:44;100170.41;;;20.66;34.67
84382;BME280;74572;51.834;5.820;2024-03-02T10:28:10;100164.88;;;19.78;35.23
84382;BME280;74572;51.834;5.820;2024-03-02T10:30:36;100169.53;;;19.14;36.35
84382;BME280;74572;51.834;5.820;2024-03-02T10:33:02;100160.13;;;19.18;36.69
84382;BME280;74572;51.834;5.820;2024-03-02T10:35:28;100160.75;;;18.91;36.59
84382;BME280;74572;51.834;5.820;2024-03-02T10:37:53;100162.22;;;18.65;37.42
84382;BME280;74572;51.834;5.820;2024-03-02T10:40:22;100149.34;;;18.68;37.25
84382;BME280;74572;51.834;5.820;2024-03-02T10:42:49;100143.44;;;18.78;37.07
84382;BME280;74572;51.834;5.820;2024-03-02T10:45:16;100138.44;;;18.16;37.25
84382;BME280;74572;51.834;5.820;2024-03-02T10:47:46;100135.78;;;18.10;37.65
84382;BME280;74572;51.834;5.820;2024-03-02T10:50:12;100141.50;;;17.84;37.77
84382;BME280;74572;51.834;5.820;2024-03-02T10:52:38;100144.97;;;17.86;37.23
84382;BME280;74572;51.834;5.820;2024-03-02T10:55:09;100139.00;;;17.89;38.00
84382;BME280;74572;51.834;5.820;2024-03-02T10:57:51;100146.09;;;17.48;37.75
84382;BME280;74572;51.834;5.820;2024-03-02T11:00:18;100144.91;;;16.73;39.20
84382;BME280;74572;51.834;5.820;2024-03-02T11:02:56;100141.31;;;16.21;39.77
84382;BME280;74572;51.834;5.820;2024-03-02T11:05:31;100135.47;;;15.86;39.82
84382;BME280;74572;51.834;5.820;2024-03-02T11:08:12;100155.50;;;15.65;40.36
84382;BME280;74572;51.834;5.820;2024-03-02T11:10:45;100151.19;;;15.63;40.19
84382;BME280;74572;51.834;5.820;2024-03-02T11:13:13;100134.56;;;15.47;40.24
84382;BME280;74572;51.834;5.820;2024-03-02T11:15:43;100131.97;;;15.09;40.57
84382;BME280;74572;51.834;5.820;2024-03-02T11:18:09;100133.84;;;14.80;41.06
84382;BME280;74572;51.834;5.820;2024-03-02T11:20:39;100138.28;;;14.55;41.58
84382;BME280;74572;51.834;5.820;2024-03-02T11:23:09;100137.19;;;14.16;41.86
84382;BME280;74572;51.834;5.820;2024-03-02T11:25:35;100142.81;;;14.05;42.02
84382;BME280;74572;51.834;5.820;2024-03-02T11:28:03;100146.53;;;13.85;42.21
84382;BME280;74572;51.834;5.820;2024-03-02T11:33:04;100134.84;;;13.64;42.49
84382;BME280;74572;51.834;5.820;2024-03-02T11:35:33;100140.06;;;13.69;42.58
84382;BME280;74572;51.834;5.820;2024-03-02T11:38:01;100137.34;;;13.63;42.62
84382;BME280;74572;51.834;5.820;2024-03-02T11:40:27;100132.13;;;13.60;42.36
84382;BME280;74572;51.834;5.820;2024-03-02T11:42:53;100132.63;;;13.48;42.32
84382;BME280;74572;51.834;5.820;2024-03-02T11:45:24;100136.84;;;13.46;42.71
84382;BME280;74572;51.834;5.820;2024-03-02T11:47:50;100136.63;;;13.40;42.84
84382;BME280;74572;51.834;5.820;2024-03-02T11:52:54;100129.25;;;13.49;42.55
84382;BME280;74572;51.834;5.820;2024-03-02T11:55:21;100125.88;;;13.50;42.74
84382;BME280;74572;51.834;5.820;2024-03-02T11:57:48;100120.63;;;13.45;42.57
84382;BME280;74572;51.834;5.820;2024-03-02T12:00:21;100117.06;;;13.40;42.53
84382;BME280;74572;51.834;5.820;2024-03-02T12:02:47;100122.03;;;13.36;42.57
84382;BME280;74572;51.834;5.820;2024-03-02T12:05:24;100109.31;;;13.37;42.72
84382;BME280;74572;51.834;5.820;2024-03-02T12:07:55;100112.63;;;13.35;42.55
84382;BME280;74572;51.834;5.820;2024-03-02T12:10:21;100108.94;;;13.25;42.80
84382;BME280;74572;51.834;5.820;2024-03-02T12:12:47;100094.38;;;13.23;43.20
84382;BME280;74572;51.834;5.820;2024-03-02T12:15:13;100101.03;;;13.18;43.66
84382;BME280;74572;51.834;5.820;2024-03-02T12:17:38;100100.16;;;13.17;43.73
84382;BME280;74572;51.834;5.820;2024-03-02T12:20:07;100103.41;;;13.13;43.73
84382;BME280;74572;51.834;5.820;2024-03-02T12:22:32;100107.63;;;13.12;43.62
84382;BME280;74572;51.834;5.820;2024-03-02T12:24:58;100095.50;;;13.05;43.88
84382;BME280;74572;51.834;5.820;2024-03-02T12:27:23;100097.75;;;13.22;43.84
84382;BME280;74572;51.834;5.820;2024-03-02T12:29:49;100097.75;;;13.22;43.79
84382;BME280;74572;51.834;5.820;2024-03-02T12:32:15;100105.63;;;13.29;43.85
84382;BME280;74572;51.834;5.820;2024-03-02T12:34:40;100099.50;;;13.23;43.99
84382;BME280;74572;51.834;5.820;2024-03-02T12:37:06;100098.19;;;13.10;44.53
84382;BME280;74572;51.834;5.820;2024-03-02T12:39:31;100088.13;;;13.14;44.31
84382;BME280;74572;51.834;5.820;2024-03-02T12:41:58;100089.00;;;13.42;44.41
84382;BME280;74572;51.834;5.820;2024-03-02T12:44:23;100091.50;;;13.69;43.95
84382;BME280;74572;51.834;5.820;2024-03-02T12:46:49;100080.00;;;13.83;43.79
84382;BME280;74572;51.834;5.820;2024-03-02T12:49:15;100081.94;;;13.92;43.95
84382;BME280;74572;51.834;5.820;2024-03-02T12:51:45;100073.75;;;14.03;43.67
84382;BME280;74572;51.834;5.820;2024-03-02T12:54:17;100059.81;;;14.25;43.46
84382;BME280;74572;51.834;5.820;2024-03-02T12:56:42;100059.13;;;14.31;43.37
84382;BME280;74572;51.834;5.820;2024-03-02T12:59:19;100056.94;;;14.44;42.58
84382;BME280;74572;51.834;5.820;2024-03-02T13:01:50;100054.44;;;14.46;43.04